Time;durP1;ratioP1;P1;durP2;ratioP2;P2;SDS_P1;SDS_P2;PMS_P1;PMS_P2;Temp;Humidity;BMP_temperature;BMP_pressure;BME280_temperature;BME280_humidity;BME280_pressure;Samples;Min_cycle;Max_cycle;Signal;HPM_P1;HPM_P2
2023/04/24 00:00:06;;;;;;;9.30;4.32;;;;;;;12.37;56.27;99573.63;3144919;28;20048;-64
2023/04/24 00:01:39;;;;;;;9.27;4.53;;;;;;;12.35;56.19;99572.84;3142599;28;20060;-67
2023/04/24 00:03:12;;;;;;;8.20;4.32;;;;;;;12.37;56.05;99571.00;3144952;28;20066;-64
2023/04/24 00:04:44;;;;;;;;;;;;;;;12.14;56.03;99550.56;3138139;28;20054;-64
2023/04/24 00:06:17;;;;;;;9.98;4.38;;;;;;;12.32;56.35;99570.44;3139188;28;19943;-65
2023/04/24 00:07:52;;;;;;;11.80;4.82;;;;;;;12.33;55.94;99571.25;3143256;28;20048;-66
2023/04/24 00:09:24;;;;;;;14.45;4.68;;;;;;;12.04;56.22;99526.75;3145037;28;20044;-66
2023/04/24 00:10:55;;;;;;;11.57;4.80;;;;;;;12.35;56.20;99574.63;3144613;28;20044;-66
2023/04/24 00:12:28;;;;;;;11.85;5.20;;;;;;;12.35;56.15;99575.47;3145281;28;20052;-67
2023/04/24 00:13:59;;;;;;;10.13;4.97;;;;;;;12.37;56.07;99572.78;3144768;28;20055;-68
2023/04/24 00:15:31;;;;;;;13.48;5.10;;;;;;;12.38;56.37;99570.06;3144969;28;20437;-68
2023/04/24 00:17:03;;;;;;;9.23;5.07;;;;;;;12.36;56.14;99566.69;3145276;28;20052;-67
2023/04/24 00:18:36;;;;;;;9.27;4.90;;;;;;;12.36;56.38;99571.09;3140496;28;20053;-67
2023/04/24 00:20:10;;;;;;;14.30;5.95;;;;;;;12.33;56.33;99577.31;3139337;28;20045;-66
2023/04/24 00:21:42;;;;;;;12.55;5.10;;;;;;;12.30;56.44;99577.50;3144679;28;20048;-67
2023/04/24 00:23:14;;;;;;;14.68;5.72;;;;;;;12.31;56.47;99584.41;3145295;28;20598;-66
2023/04/24 00:24:46;;;;;;;14.52;5.63;;;;;;;12.32;56.33;99582.63;3144811;28;20044;-67
2023/04/24 00:26:18;;;;;;;9.65;5.05;;;;;;;12.28;56.61;99576.75;3144723;28;20429;-65
2023/04/24 00:27:50;;;;;;;10.75;4.68;;;;;;;12.25;56.36;99558.66;3144359;28;20168;-65
2023/04/24 00:29:22;;;;;;;13.52;4.65;;;;;;;12.30;56.67;99569.66;3140255;28;20096;-65
2023/04/24 00:30:54;;;;;;;9.40;5.15;;;;;;;12.29;56.86;99567.97;3141200;28;20053;-64
2023/04/24 00:32:25;;;;;;;15.88;6.10;;;;;;;12.25;56.84;99567.31;3132779;28;20120;-64
2023/04/24 00:33:59;;;;;;;11.05;5.28;;;;;;;12.22;56.97;99564.88;3139402;28;20052;-64
2023/04/24 00:35:31;;;;;;;9.27;4.97;;;;;;;12.23;56.79;99570.94;3142000;28;20090;-64
2023/04/24 00:37:02;;;;;;;9.68;4.93;;;;;;;12.21;57.09;99567.56;3144970;28;20052;-64
2023/04/24 00:38:34;;;;;;;11.85;5.00;;;;;;;12.21;56.82;99560.56;3144507;28;20048;-64
2023/04/24 00:40:07;;;;;;;13.40;5.13;;;;;;;12.19;56.77;99556.38;3144377;28;20056;-66
2023/04/24 00:41:39;;;;;;;13.60;4.90;;;;;;;12.21;57.20;99557.97;3144348;28;20040;-64
2023/04/24 00:43:12;;;;;;;9.68;4.57;;;;;;;12.22;57.18;99564.03;3144509;28;20048;-65
2023/04/24 00:44:43;;;;;;;13.45;4.80;;;;;;;12.20;56.83;99561.50;3141844;28;20185;-66
2023/04/24 00:46:15;;;;;;;11.35;4.68;;;;;;;12.17;57.14;99559.06;3144233;28;20059;-65
2023/04/24 00:47:49;;;;;;;12.50;4.30;;;;;;;12.20;56.95;99560.66;3140468;28;20475;-65
2023/04/24 00:49:22;;;;;;;12.88;5.75;;;;;;;11.87;57.33;99509.41;3125601;28;20057;-63
2023/04/24 00:50:53;;;;;;;18.05;5.68;;;;;;;12.16;57.09;99567.84;3132920;28;20056;-64
2023/04/24 00:52:25;;;;;;;12.18;5.00;;;;;;;12.16;57.30;99564.38;3144619;28;20125;-65
2023/04/24 00:53:57;;;;;;;17.08;5.32;;;;;;;12.16;57.49;99567.00;3144842;28;20131;-64
2023/04/24 00:55:28;;;;;;;10.15;5.85;;;;;;;12.15;57.25;99565.28;3144292;28;20061;-64
2023/04/24 00:57:01;;;;;;;9.98;4.55;;;;;;;12.14;57.25;99561.84;3144341;28;20048;-64
2023/04/24 00:58:33;;;;;;;11.40;5.00;;;;;;;12.16;57.37;99569.59;3144392;28;20103;-64
2023/04/24 01:00:11;;;;;;;9.18;5.00;;;;;;;12.11;57.43;99558.56;3144573;28;20040;-64
2023/04/24 01:01:45;;;;;;;14.98;5.25;;;;;;;12.10;57.79;99562.97;3138918;28;20084;-63
2023/04/24 01:03:18;;;;;;;15.32;4.78;;;;;;;12.12;57.54;99560.25;3129834;28;20141;-64
2023/04/24 01:04:51;;;;;;;15.55;4.35;;;;;;;12.08;57.59;99564.81;3126915;28;20099;-64
2023/04/24 01:06:24;;;;;;;14.38;5.30;;;;;;;12.05;57.84;99564.97;3131379;28;20094;-64
2023/04/24 01:07:57;;;;;;;12.07;4.75;;;;;;;11.97;58.25;99559.31;3134907;28;20453;-64
2023/04/24 01:09:29;;;;;;;6.78;4.35;;;;;;;12.01;57.92;99566.06;3134721;28;20152;-66
2023/04/24 01:11:04;;;;;;;7.53;4.63;;;;;;;12.00;58.03;99565.22;3134142;28;20049;-63
2023/04/24 01:12:36;;;;;;;8.25;4.50;;;;;;;11.98;58.10;99566.22;3134250;28;20527;-65
2023/04/24 01:14:08;;;;;;;10.55;4.57;;;;;;;11.94;58.39;99555.09;3134409;28;20525;-65
2023/04/24 01:15:41;;;;;;;7.30;4.32;;;;;;;11.93;58.15;99566.47;3133903;28;20044;-65
2023/04/24 01:17:13;;;;;;;10.38;4.53;;;;;;;11.90;58.63;99564.03;3130127;28;20055;-64
2023/04/24 01:18:45;;;;;;;13.05;5.00;;;;;;;11.91;58.76;99567.47;3135019;28;20518;-63
2023/04/24 01:20:19;;;;;;;13.82;5.28;;;;;;;11.91;58.58;99565.72;3130260;28;20075;-63
2023/04/24 01:21:54;;;;;;;10.10;4.90;;;;;;;11.90;58.66;99564.03;3135275;28;20535;-63
2023/04/24 01:23:28;;;;;;;17.02;5.47;;;;;;;11.89;58.56;99559.75;3135392;28;20048;-63
2023/04/24 01:24:59;;;;;;;11.18;4.85;;;;;;;11.89;58.42;99557.16;3133889;28;20068;-63
2023/04/24 01:26:31;;;;;;;10.18;4.97;;;;;;;11.88;58.68;99560.66;3135240;28;20140;-63
2023/04/24 01:28:03;;;;;;;12.40;4.93;;;;;;;11.88;58.62;99554.59;3135281;28;20056;-63
2023/04/24 01:29:35;;;;;;;13.00;4.68;;;;;;;11.87;58.67;99558.16;3129241;28;20502;-65
2023/04/24 01:31:08;;;;;;;13.48;6.10;;;;;;;11.85;59.08;99566.03;3133174;28;20501;-65
2023/04/24 01:32:41;;;;;;;15.23;7.13;;;;;;;11.75;59.12;99557.00;3135745;28;20052;-63
2023/04/24 01:34:12;;;;;;;;;;;;;;;11.69;59.11;99565.16;3136763;28;20056;-63
2023/04/24 01:35:44;;;;;;;17.63;6.32;;;;;;;11.66;59.49;99568.78;3135364;28;19925;-63
2023/04/24 01:37:15;;;;;;;16.80;6.95;;;;;;;11.57;59.31;99566.66;3137035;28;20049;-64
2023/04/24 01:38:49;;;;;;;15.80;7.32;;;;;;;11.57;59.48;99570.09;3137349;28;20079;-65
2023/04/24 01:40:20;;;;;;;13.57;6.93;;;;;;;11.56;59.79;99568.41;3134954;28;20570;-65
2023/04/24 01:41:52;;;;;;;13.38;6.32;;;;;;;11.52;59.99;99564.28;3131599;28;20432;-65
2023/04/24 01:43:25;;;;;;;14.18;6.90;;;;;;;11.52;60.04;99569.50;3137543;28;20109;-65
2023/04/24 01:44:58;;;;;;;11.10;6.72;;;;;;;11.50;59.88;99566.13;3129741;28;20860;-63
2023/04/24 01:46:31;;;;;;;16.23;6.53;;;;;;;11.48;60.09;99570.59;3132463;28;20114;-64
2023/04/24 01:48:03;;;;;;;13.27;6.60;;;;;;;11.47;60.17;99565.44;3133340;28;20066;-64
2023/04/24 01:49:34;;;;;;;13.95;7.35;;;;;;;11.44;60.28;99563.84;3117556;28;20052;-63
2023/04/24 01:51:06;;;;;;;12.55;7.15;;;;;;;11.42;60.13;99562.22;3126999;28;20053;-64
2023/04/24 01:52:38;;;;;;;15.52;7.03;;;;;;;11.36;60.66;99564.25;3137251;28;20058;-64
2023/04/24 01:54:12;;;;;;;13.02;7.80;;;;;;;11.29;60.63;99564.66;3137042;28;20056;-63
2023/04/24 01:55:45;;;;;;;13.32;6.65;;;;;;;11.15;60.99;99554.91;3136484;28;20147;-63
2023/04/24 01:57:16;;;;;;;15.95;8.27;;;;;;;11.08;61.19;99559.63;3137038;28;20052;-64
2023/04/24 01:58:49;;;;;;;16.50;7.63;;;;;;;10.99;61.12;99560.09;3122843;28;20052;-64
2023/04/24 02:00:21;;;;;;;12.25;7.30;;;;;;;10.94;61.23;99562.06;3128454;28;20061;-64
2023/04/24 02:01:52;;;;;;;14.93;7.70;;;;;;;10.88;61.48;99563.25;3134326;28;20058;-64
2023/04/24 02:03:25;;;;;;;14.07;7.55;;;;;;;10.84;61.55;99563.47;3136277;28;20182;-63
2023/04/24 02:04:57;;;;;;;12.60;7.57;;;;;;;10.81;61.88;99559.25;3132026;28;20101;-64
2023/04/24 02:06:28;;;;;;;12.95;7.15;;;;;;;10.78;62.05;99561.16;3133132;28;20052;-63
2023/04/24 02:08:00;;;;;;;14.30;6.85;;;;;;;10.73;62.02;99558.78;3136522;28;20117;-63
2023/04/24 02:09:32;;;;;;;11.60;7.57;;;;;;;10.70;61.91;99551.97;3136626;28;20135;-63
2023/04/24 02:11:05;;;;;;;17.13;8.43;;;;;;;10.65;62.32;99556.56;3136980;28;20139;-63
2023/04/24 02:12:37;;;;;;;14.10;6.72;;;;;;;10.64;62.09;99557.47;3136489;28;20159;-63
2023/04/24 02:14:09;;;;;;;17.60;7.57;;;;;;;10.60;62.45;99555.09;3136765;28;20151;-63
2023/04/24 02:15:42;;;;;;;14.18;6.90;;;;;;;10.60;62.32;99550.75;3131986;28;20048;-63
2023/04/24 02:17:15;;;;;;;13.90;7.32;;;;;;;10.59;62.44;99556.00;3136878;28;20050;-63
2023/04/24 02:18:47;;;;;;;;;;;;;;;10.49;62.48;99550.41;3136909;28;20083;-64
2023/04/24 02:20:19;;;;;;;14.07;6.82;;;;;;;10.49;62.50;99547.81;3132156;28;19925;-64
2023/04/24 02:21:51;;;;;;;12.15;6.70;;;;;;;10.48;62.55;99548.75;3137212;28;20420;-64
2023/04/24 02:23:22;;;;;;;16.52;7.60;;;;;;;10.44;62.93;99534.16;3136366;28;20255;-64
2023/04/24 02:24:56;;;;;;;13.13;6.72;;;;;;;10.51;63.20;99543.38;3136291;28;20536;-64
2023/04/24 02:26:28;;;;;;;16.98;7.00;;;;;;;10.50;63.04;99536.50;3125770;28;20057;-64
2023/04/24 02:28:00;;;;;;;14.18;7.28;;;;;;;10.51;63.29;99543.38;3111837;28;20061;-64
2023/04/24 02:29:32;;;;;;;16.23;7.63;;;;;;;10.50;63.41;99541.72;3130675;28;20060;-63
2023/04/24 02:31:05;;;;;;;18.05;7.95;;;;;;;10.49;63.09;99537.41;3136226;28;20059;-64
2023/04/24 02:32:37;;;;;;;13.80;6.88;;;;;;;10.48;63.38;99538.31;3132415;28;20528;-64
2023/04/24 02:34:09;;;;;;;14.70;6.68;;;;;;;10.41;63.61;99522.16;3134082;28;20051;-64
2023/04/24 02:35:41;;;;;;;13.80;7.38;;;;;;;10.46;63.44;99537.53;3135234;28;20055;-63
2023/04/24 02:37:13;;;;;;;10.90;6.72;;;;;;;10.45;63.79;99538.47;3130403;28;20045;-64
2023/04/24 02:38:45;;;;;;;11.75;7.28;;;;;;;10.45;63.68;99535.88;3131292;28;20838;-64
2023/04/24 02:40:18;;;;;;;17.27;7.03;;;;;;;10.48;63.69;99533.13;3136822;28;20550;-64
2023/04/24 02:41:49;;;;;;;16.60;7.00;;;;;;;10.45;63.57;99528.06;3135537;28;20114;-65
2023/04/24 02:43:21;;;;;;;18.67;7.55;;;;;;;10.43;63.69;99528.13;3136787;28;20060;-64
2023/04/24 02:44:53;;;;;;;12.15;7.55;;;;;;;10.46;63.83;99542.75;3132421;28;20048;-64
2023/04/24 02:46:26;;;;;;;12.65;6.78;;;;;;;10.41;63.76;99532.59;3137039;28;20143;-64
2023/04/24 02:47:58;;;;;;;15.80;7.05;;;;;;;10.41;63.74;99532.59;3133098;28;20572;-64
2023/04/24 02:49:30;;;;;;;15.05;6.93;;;;;;;10.42;63.60;99533.41;3117150;28;20140;-64
2023/04/24 02:51:03;;;;;;;17.17;6.90;;;;;;;10.39;63.64;99539.63;3125368;28;20076;-64
2023/04/24 02:52:35;;;;;;;12.20;7.18;;;;;;;10.37;63.93;99533.63;3136389;28;20599;-64
2023/04/24 02:54:07;;;;;;;14.20;7.78;;;;;;;10.33;63.93;99528.66;3136761;28;20060;-64
2023/04/24 02:55:39;;;;;;;13.80;6.88;;;;;;;10.33;64.08;99539.06;3136792;28;20497;-64
2023/04/24 02:57:11;;;;;;;21.37;7.43;;;;;;;10.31;64.05;99538.28;3136511;28;20501;-64
2023/04/24 02:58:43;;;;;;;12.00;7.65;;;;;;;10.32;64.08;99542.56;3134201;28;20111;-64
2023/04/24 03:00:16;;;;;;;17.23;7.72;;;;;;;10.31;64.54;99538.28;3134434;28;20076;-64
2023/04/24 03:02:21;;;;;;;14.63;7.40;;;;;;;10.27;64.24;99541.97;3133611;28;20049;-65
2023/04/24 03:03:53;;;;;;;13.90;7.65;;;;;;;10.27;64.74;99534.16;3136214;28;20065;-65
2023/04/24 03:05:27;;;;;;;19.27;7.65;;;;;;;10.28;64.36;99541.06;3127049;28;20240;-65
2023/04/24 03:06:57;;;;;;;;;;;;;;;10.21;64.27;99540.47;3135983;28;20055;-65
2023/04/24 03:08:29;;;;;;;13.18;6.90;;;;;;;10.22;64.66;99532.59;3136051;28;20404;-65
2023/04/24 03:10:00;;;;;;;14.57;7.40;;;;;;;10.24;64.51;99538.56;3135470;28;20509;-65
2023/04/24 03:11:34;;;;;;;16.30;7.28;;;;;;;10.25;64.53;99537.63;3136159;28;20084;-64
2023/04/24 03:13:05;;;;;;;;;;;;;;;10.21;64.56;99541.31;3136491;28;20048;-65
2023/04/24 03:14:36;;;;;;;15.60;7.05;;;;;;;10.24;65.03;99541.16;3132075;28;20328;-65
2023/04/24 03:16:08;;;;;;;16.13;7.95;;;;;;;10.26;64.83;99541.06;3136789;28;20076;-65
2023/04/24 03:17:40;;;;;;;15.73;7.70;;;;;;;10.27;64.92;99536.78;3136618;28;20135;-65
2023/04/24 03:19:13;;;;;;;15.70;7.25;;;;;;;10.25;65.17;99545.44;3135346;28;20585;-65
2023/04/24 03:20:46;;;;;;;15.98;7.47;;;;;;;10.29;65.04;99545.31;3130012;28;20529;-65
2023/04/24 03:22:18;;;;;;;13.77;8.00;;;;;;;10.27;65.01;99549.78;3133490;28;20063;-65
2023/04/24 03:23:50;;;;;;;20.20;8.07;;;;;;;10.27;65.05;99542.81;3135209;28;20087;-65
2023/04/24 03:25:22;;;;;;;16.90;9.45;;;;;;;10.27;65.12;99553.22;3135696;28;20139;-64
2023/04/24 03:26:56;;;;;;;16.40;9.50;;;;;;;10.26;65.25;99543.69;3135023;28;20305;-64
2023/04/24 03:28:28;;;;;;;20.70;9.07;;;;;;;10.28;65.31;99551.47;3129326;28;20517;-64
2023/04/24 03:30:00;;;;;;;16.05;8.75;;;;;;;10.25;65.32;99542.84;3124629;28;20052;-64
2023/04/24 03:31:32;;;;;;;19.33;10.02;;;;;;;10.19;65.21;99537.94;3135202;28;20891;-64
2023/04/24 03:33:05;;;;;;;16.27;9.23;;;;;;;10.25;65.49;99549.81;3133637;28;20576;-64
2023/04/24 03:34:36;;;;;;;16.15;8.93;;;;;;;10.24;65.34;99555.94;3134433;28;21852;-64
2023/04/24 03:36:08;;;;;;;18.13;9.38;;;;;;;10.24;65.27;99561.16;3134572;28;20114;-64
2023/04/24 03:37:39;;;;;;;21.23;8.95;;;;;;;10.22;65.50;99560.38;3135592;28;20502;-64
2023/04/24 03:39:11;;;;;;;19.25;9.68;;;;;;;10.17;65.58;99552.75;3135288;28;20258;-64
2023/04/24 03:40:43;;;;;;;16.95;8.75;;;;;;;10.17;65.48;99554.53;3135644;28;20080;-64
2023/04/24 03:42:17;;;;;;;18.95;10.40;;;;;;;10.21;65.61;99556.09;3135316;28;20443;-64
2023/04/24 03:43:47;;;;;;;;;;;;;;;10.17;65.56;99563.16;3129276;28;20139;-64
2023/04/24 03:45:20;;;;;;;20.65;9.32;;;;;;;10.17;65.45;99555.38;3131737;28;20714;-64
2023/04/24 03:46:52;;;;;;;24.38;9.07;;;;;;;10.21;65.60;99553.50;3131440;28;20139;-64
2023/04/24 03:48:23;;;;;;;19.23;8.90;;;;;;;10.21;65.52;99550.88;3126174;28;20060;-64
2023/04/24 03:49:55;;;;;;;18.00;8.77;;;;;;;10.24;65.75;99559.38;3118669;28;20048;-64
2023/04/24 03:51:30;;;;;;;16.15;8.95;;;;;;;10.23;65.84;99555.09;3120939;28;20048;-64
2023/04/24 03:53:01;;;;;;;25.95;9.75;;;;;;;10.23;65.51;99549.91;3130409;28;20382;-64
2023/04/24 03:54:33;;;;;;;21.80;8.60;;;;;;;10.22;65.35;99539.53;3135299;28;20103;-65
2023/04/24 03:56:05;;;;;;;20.60;8.85;;;;;;;10.24;65.32;99543.78;3135479;28;20053;-64
2023/04/24 03:57:38;;;;;;;18.75;8.95;;;;;;;10.25;65.88;99542.00;3131499;28;20615;-64
2023/04/24 03:59:10;;;;;;;18.23;8.73;;;;;;;10.26;65.87;99546.28;3136254;28;20052;-64
2023/04/24 04:00:44;;;;;;;16.80;9.27;;;;;;;10.26;65.61;99546.28;3133999;28;20747;-63
2023/04/24 04:02:16;;;;;;;;;;;;;;;10.19;65.52;99544.91;3135354;28;20067;-63
2023/04/24 04:03:48;;;;;;;27.42;9.52;;;;;;;10.20;65.71;99546.56;3135135;28;19970;-64
2023/04/24 04:05:19;;;;;;;17.30;8.50;;;;;;;10.23;65.71;99549.03;3117772;28;20443;-64
2023/04/24 04:06:52;;;;;;;18.67;9.85;;;;;;;10.27;65.69;99544.56;3121464;28;20134;-64
2023/04/24 04:08:24;;;;;;;21.58;9.07;;;;;;;10.25;65.77;99544.59;3133265;28;20627;-64
2023/04/24 04:09:56;;;;;;;16.02;8.93;;;;;;;10.23;65.44;99541.22;3134867;28;20068;-64
2023/04/24 04:11:28;;;;;;;17.70;8.15;;;;;;;10.29;65.78;99553.97;3132219;28;20122;-64
2023/04/24 04:13:01;;;;;;;24.23;9.18;;;;;;;10.31;65.53;99556.50;3126932;28;20418;-64
2023/04/24 04:14:33;;;;;;;25.58;9.73;;;;;;;10.31;65.86;99561.72;3134631;28;20056;-64
2023/04/24 04:16:05;;;;;;;20.98;8.65;;;;;;;10.34;65.67;99564.19;3134908;28;20048;-63
2023/04/24 04:17:38;;;;;;;28.00;8.45;;;;;;;10.36;65.71;99562.34;3135854;28;20056;-64
2023/04/24 04:19:10;;;;;;;25.83;9.20;;;;;;;10.36;65.43;99563.19;3125323;28;20059;-63
2023/04/24 04:20:42;;;;;;;25.48;9.52;;;;;;;10.36;65.74;99557.16;3129703;28;20109;-64
2023/04/24 04:22:14;;;;;;;20.10;9.13;;;;;;;10.37;65.45;99562.25;3135023;28;20497;-64
2023/04/24 04:23:46;;;;;;;21.92;8.80;;;;;;;10.39;65.63;99567.41;3134847;28;20616;-65
2023/04/24 04:25:19;;;;;;;21.55;9.00;;;;;;;10.40;65.78;99571.69;3117301;28;20148;-63
2023/04/24 04:26:52;;;;;;;21.40;10.05;;;;;;;10.41;65.78;99573.38;3114248;28;20558;-64
2023/04/24 04:28:26;;;;;;;21.13;8.65;;;;;;;10.43;65.66;99572.38;3134363;28;20057;-63
2023/04/24 04:29:59;;;;;;;18.73;8.45;;;;;;;10.45;65.35;99574.94;3125904;28;20053;-68
2023/04/24 04:31:31;;;;;;;17.33;8.23;;;;;;;10.31;65.48;99553.91;3135280;28;20557;-65
2023/04/24 04:33:03;;;;;;;23.65;8.85;;;;;;;10.47;65.70;99578.31;3135946;28;20052;-65
2023/04/24 04:34:37;;;;;;;53.88;21.60;;;;;;;10.52;65.68;99583.28;3129142;28;20447;-68
2023/04/24 04:36:09;;;;;;;43.55;21.75;;;;;;;10.56;65.67;99587.41;3125563;28;20454;-66
2023/04/24 04:37:42;;;;;;;119.63;55.42;;;;;;;10.41;65.81;99548.19;3134393;28;20053;-64
2023/04/24 04:39:16;;;;;;;124.70;60.67;;;;;;;10.58;65.85;99578.59;3135765;28;20053;-66
2023/04/24 04:40:48;;;;;;;55.25;23.33;;;;;;;10.61;65.55;99573.25;3134713;28;20818;-66
2023/04/24 04:42:20;;;;;;;35.40;18.60;;;;;;;10.64;65.98;99574.84;3131268;28;20055;-68
2023/04/24 04:43:53;;;;;;;26.58;13.13;;;;;;;10.67;65.93;99575.53;3134565;28;20075;-68
2023/04/24 04:45:26;;;;;;;69.68;36.97;;;;;;;10.68;65.88;99577.25;3134765;28;20133;-68
2023/04/24 04:46:59;;;;;;;115.80;57.28;;;;;;;10.71;65.43;99573.66;3134199;28;20139;-68
2023/04/24 04:48:31;;;;;;;54.70;27.90;;;;;;;10.79;65.36;99578.47;3124103;28;20281;-67
2023/04/24 04:50:05;;;;;;;54.40;26.65;;;;;;;10.81;65.40;99581.84;3125045;28;20048;-65
2023/04/24 04:51:37;;;;;;;44.17;17.38;;;;;;;10.85;65.67;99575.56;3123282;28;20754;-71
2023/04/24 04:53:16;;;;;;;19.97;9.47;;;;;;;10.82;65.30;99570.50;3137052;28;20059;-64
2023/04/24 04:54:48;;;;;;;17.75;9.15;;;;;;;10.91;65.04;99580.47;3130543;28;20051;-66
2023/04/24 04:56:20;;;;;;;18.67;9.65;;;;;;;10.95;64.84;99575.97;3127188;28;20064;-66
2023/04/24 04:57:52;;;;;;;21.65;8.80;;;;;;;10.91;64.56;99567.44;3134434;28;20052;-70
2023/04/24 04:59:26;;;;;;;16.65;8.95;;;;;;;10.87;64.68;99552.88;3135482;28;20170;-69
2023/04/24 05:00:58;;;;;;;16.92;7.82;;;;;;;11.01;64.63;99563.47;3118860;28;20541;-67
2023/04/24 05:02:30;;;;;;;17.03;8.73;;;;;;;11.05;64.56;99564.16;3126936;28;20109;-67
2023/04/24 05:04:02;;;;;;;22.83;8.43;;;;;;;11.07;64.51;99570.97;3137569;28;20433;-70
2023/04/24 05:05:35;;;;;;;17.50;8.00;;;;;;;11.12;64.65;99571.59;3129569;28;20048;-71
2023/04/24 05:07:07;;;;;;;17.25;8.30;;;;;;;11.13;64.54;99562.84;3132309;28;20053;-70
2023/04/24 05:08:39;;;;;;;21.23;8.48;;;;;;;11.18;64.22;99564.34;3129858;28;20522;-68
2023/04/24 05:10:11;;;;;;;15.90;7.57;;;;;;;11.16;64.45;99556.63;3137243;28;20486;-70
2023/04/24 05:11:44;;;;;;;22.98;9.10;;;;;;;11.26;64.04;99567.41;3137000;28;20486;-68
2023/04/24 05:13:16;;;;;;;16.85;7.80;;;;;;;11.21;64.28;99546.81;3130450;28;20479;-70
2023/04/24 05:14:49;;;;;;;13.80;7.57;;;;;;;11.36;63.75;99566.88;3130662;28;20052;-68
2023/04/24 05:16:21;;;;;;;16.17;8.80;;;;;;;11.45;64.10;99572.53;3137477;28;20056;-67
2023/04/24 05:17:53;;;;;;;17.33;7.90;;;;;;;11.54;63.81;99570.28;3138317;28;20049;-67
2023/04/24 05:19:25;;;;;;;11.93;7.43;;;;;;;11.65;63.69;99559.25;3138077;28;20052;-68
2023/04/24 05:20:56;;;;;;;13.70;8.60;;;;;;;11.82;63.19;99563.56;3137799;28;20240;-67
2023/04/24 05:22:28;;;;;;;16.25;8.63;;;;;;;12.02;62.82;99563.38;3138086;28;20639;-65
2023/04/24 05:24:00;;;;;;;20.73;7.93;;;;;;;12.28;62.45;99558.47;3135807;28;20056;-66
2023/04/24 05:25:35;;;;;;;20.52;8.68;;;;;;;12.51;62.04;99559.78;3132474;28;20059;-67
2023/04/24 05:27:07;;;;;;;15.88;7.55;;;;;;;12.68;61.63;99553.59;3133177;28;20244;-65
2023/04/24 05:28:38;;;;;;;22.08;8.07;;;;;;;12.87;61.17;99548.16;3134667;28;20052;-67
2023/04/24 05:30:13;;;;;;;17.67;6.78;;;;;;;12.98;60.61;99543.97;3122974;28;20053;-68
2023/04/24 05:31:45;;;;;;;19.63;7.38;;;;;;;13.10;60.61;99536.31;3136810;28;20484;-68
2023/04/24 05:33:17;;;;;;;22.05;7.05;;;;;;;13.29;60.52;99541.31;3138057;28;20106;-67
2023/04/24 05:34:49;;;;;;;21.92;7.55;;;;;;;13.46;60.05;99543.75;3131516;28;20881;-66
2023/04/24 05:36:21;;;;;;;22.98;7.65;;;;;;;13.66;59.74;99542.50;3128697;28;20063;-67
2023/04/24 05:37:53;;;;;;;14.93;7.00;;;;;;;13.79;59.12;99538.22;3136257;28;20056;-66
2023/04/24 05:39:25;;;;;;;16.05;6.43;;;;;;;13.84;58.84;99532.66;3129024;28;20614;-72
2023/04/24 05:40:56;;;;;;;18.77;6.35;;;;;;;13.86;58.52;99536.88;3112664;28;20064;-75
2023/04/24 05:42:29;;;;;;;24.10;8.15;;;;;;;13.97;58.30;99533.59;3136549;28;20441;-71
2023/04/24 05:44:01;;;;;;;16.20;6.43;;;;;;;13.99;58.21;99523.00;3137951;28;20512;-78
2023/04/24 05:45:35;;;;;;;21.63;6.57;;;;;;;14.09;57.67;99532.81;3128291;28;20063;-78
2023/04/24 05:47:07;;;;;;;17.10;6.00;;;;;;;14.03;57.19;99533.19;3123382;28;20484;-78
2023/04/24 05:48:39;;;;;;;10.70;5.40;;;;;;;13.96;57.36;99533.69;3126412;28;20107;-73
2023/04/24 05:50:12;;;;;;;12.88;5.95;;;;;;;13.81;57.18;99531.13;3124985;28;20052;-73
2023/04/24 05:51:44;;;;;;;15.75;6.50;;;;;;;13.76;57.36;99537.56;3135463;28;20139;-73
2023/04/24 05:53:16;;;;;;;12.37;5.70;;;;;;;13.63;57.38;99521.78;3137853;28;20467;-74
2023/04/24 05:54:49;;;;;;;10.23;6.20;;;;;;;13.67;57.14;99538.16;3129107;28;20048;-76
2023/04/24 05:56:21;;;;;;;14.48;6.20;;;;;;;13.57;57.36;99537.84;3132088;28;20060;-77
2023/04/24 05:57:53;;;;;;;14.10;6.03;;;;;;;13.56;57.28;99537.00;3136503;28;20059;-75
2023/04/24 05:59:26;;;;;;;13.93;6.65;;;;;;;13.53;57.14;99536.38;3137865;28;20052;-81
2023/04/24 06:01:01;;;;;;;19.23;6.35;;;;;;;13.50;57.45;99539.19;3135580;28;20080;-76
2023/04/24 06:02:33;;;;;;;15.98;6.72;;;;;;;13.49;57.54;99533.09;3136281;28;20053;-79
2023/04/24 06:04:06;;;;;;;14.20;5.90;;;;;;;13.52;56.99;99538.16;3136139;28;20056;-79
2023/04/24 06:05:38;;;;;;;16.55;6.32;;;;;;;13.53;57.45;99541.59;3126006;28;20597;-81
2023/04/24 06:07:11;;;;;;;19.20;5.82;;;;;;;13.58;57.33;99547.41;3124637;28;20056;-76
2023/04/24 06:08:44;;;;;;;15.50;5.93;;;;;;;13.64;57.38;99547.03;3128914;28;20052;-70
2023/04/24 06:10:16;;;;;;;19.23;6.67;;;;;;;13.53;57.23;99515.44;3130393;28;20055;-78
2023/04/24 06:11:48;;;;;;;11.30;6.03;;;;;;;13.79;57.16;99545.22;3124760;28;20163;-78
2023/04/24 06:13:20;;;;;;;14.07;5.20;;;;;;;13.88;57.55;99542.88;3136503;28;20106;-77
2023/04/24 06:14:52;;;;;;;14.05;5.25;;;;;;;13.97;57.12;99546.69;3129526;28;20593;-77
2023/04/24 06:16:26;;;;;;;15.90;5.43;;;;;;;13.98;57.40;99537.03;3135469;28;20547;-75
2023/04/24 06:17:58;;;;;;;8.73;4.88;;;;;;;13.99;57.59;99541.34;3136892;28;20056;-79
2023/04/24 06:19:30;;;;;;;10.77;5.18;;;;;;;14.00;57.80;99536.00;3133866;28;20091;-78
2023/04/24 06:21:03;;;;;;;21.35;5.50;;;;;;;14.10;57.69;99538.88;3131676;28;20059;-71
2023/04/24 06:22:35;;;;;;;10.50;5.10;;;;;;;14.29;57.66;99543.78;3135068;28;20600;-74
2023/04/24 06:24:07;;;;;;;10.32;5.00;;;;;;;14.40;57.65;99532.59;3131362;28;20052;-66
2023/04/24 06:25:39;;;;;;;12.30;5.30;;;;;;;14.53;57.41;99544.84;3136200;28;20056;-75
2023/04/24 06:27:12;;;;;;;14.13;5.57;;;;;;;14.62;57.35;99539.94;3131849;28;20084;-77
2023/04/24 06:28:44;;;;;;;10.60;4.53;;;;;;;14.69;56.92;99541.19;3124120;28;20122;-76
2023/04/24 06:30:17;;;;;;;10.48;5.18;;;;;;;14.79;56.87;99537.03;3126442;28;20799;-77
2023/04/24 06:31:51;;;;;;;10.15;5.05;;;;;;;14.91;56.35;99538.84;3123288;28;20118;-77
2023/04/24 06:33:23;;;;;;;15.63;6.25;;;;;;;15.00;56.16;99534.75;3128619;28;20480;-72
2023/04/24 06:34:55;;;;;;;8.57;5.32;;;;;;;14.97;55.50;99546.28;3130552;28;20053;-72
2023/04/24 06:36:27;;;;;;;13.35;6.07;;;;;;;14.86;55.38;99533.06;3130296;28;20079;-72
2023/04/24 06:37:59;;;;;;;18.73;6.28;;;;;;;14.77;55.57;99544.16;3124560;28;20056;-72
2023/04/24 06:39:32;;;;;;;11.07;5.85;;;;;;;14.62;55.80;99534.69;3130158;28;20089;-72
2023/04/24 06:41:04;;;;;;;12.02;5.85;;;;;;;14.60;55.83;99519.06;3136055;28;20579;-70
2023/04/24 06:42:37;;;;;;;14.98;5.63;;;;;;;14.78;55.67;99535.34;3128694;28;20057;-71
2023/04/24 06:44:09;;;;;;;9.93;5.45;;;;;;;14.57;55.52;99504.38;3132935;28;20045;-74
2023/04/24 06:45:43;;;;;;;8.63;5.57;;;;;;;14.72;55.46;99538.38;3134462;28;20571;-75
2023/04/24 06:47:16;;;;;;;13.68;5.47;;;;;;;14.73;55.62;99542.66;3136072;28;20135;-70
2023/04/24 06:48:49;;;;;;;17.63;5.57;;;;;;;14.67;55.49;99537.84;3133517;28;20344;-78
2023/04/24 06:50:21;;;;;;;12.35;5.38;;;;;;;14.62;55.51;99538.16;3127958;28;20049;-77
2023/04/24 06:51:53;;;;;;;12.93;5.97;;;;;;;14.52;55.61;99544.94;3131904;28;20827;-74
2023/04/24 06:53:25;;;;;;;13.35;5.18;;;;;;;14.32;55.61;99533.94;3135908;28;20059;-74
2023/04/24 06:55:01;;;;;;;11.70;5.90;;;;;;;14.32;55.97;99544.44;3135861;28;20061;-78
2023/04/24 06:56:34;;;;;;;12.25;5.15;;;;;;;14.31;56.19;99541.91;3136653;28;20056;-74
2023/04/24 06:58:06;;;;;;;11.10;5.35;;;;;;;14.39;56.22;99541.41;3133256;28;20228;-81
2023/04/24 06:59:39;;;;;;;13.15;5.43;;;;;;;14.44;55.95;99544.59;3129322;28;20079;-79
2023/04/24 07:01:11;;;;;;;17.08;5.55;;;;;;;14.56;55.98;99546.44;3134862;28;20433;-72
2023/04/24 07:02:45;;;;;;;9.10;5.03;;;;;;;14.65;55.65;99542.34;3124675;28;20831;-71
2023/04/24 07:04:17;;;;;;;9.70;5.53;;;;;;;14.72;55.50;99544.47;3135388;28;20059;-74
2023/04/24 07:06:11;;;;;;;11.63;5.50;;;;;;;14.85;55.64;99548.88;3127160;28;20079;-75
2023/04/24 07:07:44;;;;;;;11.20;5.45;;;;;;;14.95;55.28;99542.94;3144897;28;20052;-72
2023/04/24 07:09:18;;;;;;;12.57;5.45;;;;;;;15.06;54.97;99544.84;3143422;28;20048;-75
2023/04/24 07:10:51;;;;;;;74.88;37.45;;;;;;;15.26;54.90;99548.69;3145344;28;20052;-73